sensor_id;sensor_type;location;lat;lon;timestamp;pressure;altitude;pressure_sealevel;temperature;humidity
54453;BME280;40363;52.270;10.546;2023-05-24T00:02:24;77356.75;;;-147.06;81.72
54453;BME280;40363;52.270;10.546;2023-05-24T00:04:52;77360.88;;;-147.06;82.15
54453;BME280;40363;52.270;10.546;2023-05-24T00:07:19;77362.91;;;-147.06;82.62
54453;BME280;40363;52.270;10.546;2023-05-24T00:09:45;77367.03;;;-147.06;82.87
54453;BME280;40363;52.270;10.546;2023-05-24T00:12:11;77375.25;;;-147.06;83.18
54453;BME280;40363;52.270;10.546;2023-05-24T00:14:38;77383.47;;;-147.06;83.23
54453;BME280;40363;52.270;10.546;2023-05-24T00:17:06;77389.66;;;-147.06;83.45
54453;BME280;40363;52.270;10.546;2023-05-24T00:19:32;77379.38;;;-147.06;83.61
54453;BME280;40363;52.270;10.546;2023-05-24T00:22:02;77383.47;;;-147.06;83.87
54453;BME280;40363;52.270;10.546;2023-05-24T00:24:29;77391.72;;;-147.06;84.12
54453;BME280;40363;52.270;10.546;2023-05-24T00:26:55;77393.75;;;-147.06;84.65
54453;BME280;40363;52.270;10.546;2023-05-24T00:29:22;77389.66;;;-147.06;84.75
54453;BME280;40363;52.270;10.546;2023-05-24T00:31:48;77412.25;;;-147.06;85.70
54453;BME280;40363;52.270;10.546;2023-05-24T00:34:16;77406.09;;;-147.06;85.68
54453;BME280;40363;52.270;10.546;2023-05-24T00:36:43;77401.97;;;-147.06;85.36
54453;BME280;40363;52.270;10.546;2023-05-24T00:39:09;77404.03;;;-147.06;85.77
54453;BME280;40363;52.270;10.546;2023-05-24T00:41:36;77406.09;;;-147.06;86.04
54453;BME280;40363;52.270;10.546;2023-05-24T00:44:02;77404.03;;;-147.06;86.11
54453;BME280;40363;52.270;10.546;2023-05-24T00:46:31;77404.03;;;-147.06;85.99
54453;BME280;40363;52.270;10.546;2023-05-24T00:48:59;77395.81;;;-147.06;85.96
54453;BME280;40363;52.270;10.546;2023-05-24T00:51:28;77397.88;;;-147.06;86.30
54453;BME280;40363;52.270;10.546;2023-05-24T00:53:56;77383.47;;;-147.06;85.97
54453;BME280;40363;52.270;10.546;2023-05-24T00:56:22;77379.38;;;-147.06;85.83
54453;BME280;40363;52.270;10.546;2023-05-24T00:58:49;77377.31;;;-147.06;85.75
54453;BME280;40363;52.270;10.546;2023-05-24T01:01:18;77377.31;;;-147.06;85.98
54453;BME280;40363;52.270;10.546;2023-05-24T01:03:45;77381.44;;;-147.06;86.12
54453;BME280;40363;52.270;10.546;2023-05-24T01:06:12;77383.47;;;-147.06;86.13
54453;BME280;40363;52.270;10.546;2023-05-24T01:08:56;77381.44;;;-147.06;86.87
54453;BME280;40363;52.270;10.546;2023-05-24T01:11:34;77389.66;;;-147.06;86.88
54453;BME280;40363;52.270;10.546;2023-05-24T01:14:13;77381.44;;;-147.06;86.96
54453;BME280;40363;52.270;10.546;2023-05-24T01:16:49;77377.31;;;-147.06;86.91
54453;BME280;40363;52.270;10.546;2023-05-24T01:19:50;77371.16;;;-147.06;87.14
54453;BME280;40363;52.270;10.546;2023-05-24T01:22:32;77377.31;;;-147.06;87.08
54453;BME280;40363;52.270;10.546;2023-05-24T01:25:10;77371.16;;;-147.06;87.23
54453;BME280;40363;52.270;10.546;2023-05-24T01:27:39;77401.97;;;-147.06;87.89
54453;BME280;40363;52.270;10.546;2023-05-24T01:30:07;77401.97;;;-147.06;88.30
54453;BME280;40363;52.270;10.546;2023-05-24T01:32:34;77404.03;;;-147.06;88.78
54453;BME280;40363;52.270;10.546;2023-05-24T01:35:01;77401.97;;;-147.06;88.66
54453;BME280;40363;52.270;10.546;2023-05-24T01:37:28;77404.03;;;-147.06;89.05
54453;BME280;40363;52.270;10.546;2023-05-24T01:39:55;77408.16;;;-147.06;89.11
54453;BME280;40363;52.270;10.546;2023-05-24T01:42:24;77389.66;;;-147.06;89.16
54453;BME280;40363;52.270;10.546;2023-05-24T01:45:03;77401.97;;;-147.06;89.54
54453;BME280;40363;52.270;10.546;2023-05-24T01:47:40;77397.88;;;-147.06;89.23
54453;BME280;40363;52.270;10.546;2023-05-24T01:50:14;77395.81;;;-147.06;89.61
54453;BME280;40363;52.270;10.546;2023-05-24T01:52:43;77397.88;;;-147.06;89.39
54453;BME280;40363;52.270;10.546;2023-05-24T01:55:12;77401.97;;;-147.06;89.28
54453;BME280;40363;52.270;10.546;2023-05-24T01:57:42;77397.88;;;-147.06;89.85
54453;BME280;40363;52.270;10.546;2023-05-24T02:00:13;77383.47;;;-147.06;89.20
54453;BME280;40363;52.270;10.546;2023-05-24T02:02:40;77381.44;;;-147.06;89.31
54453;BME280;40363;52.270;10.546;2023-05-24T02:05:08;77379.38;;;-147.06;89.37
54453;BME280;40363;52.270;10.546;2023-05-24T02:07:35;77383.47;;;-147.06;89.28
54453;BME280;40363;52.270;10.546;2023-05-24T02:10:02;77381.44;;;-147.06;89.68
54453;BME280;40363;52.270;10.546;2023-05-24T02:12:29;77385.53;;;-147.06;90.04
54453;BME280;40363;52.270;10.546;2023-05-24T02:14:55;77389.66;;;-147.06;90.18
54453;BME280;40363;52.270;10.546;2023-05-24T02:17:23;77375.25;;;-147.06;90.68
54453;BME280;40363;52.270;10.546;2023-05-24T02:19:51;77379.38;;;-147.06;90.40
54453;BME280;40363;52.270;10.546;2023-05-24T02:22:17;77385.53;;;-147.06;90.57
54453;BME280;40363;52.270;10.546;2023-05-24T02:24:46;77383.47;;;-147.06;90.55
54453;BME280;40363;52.270;10.546;2023-05-24T02:27:13;77381.44;;;-147.06;90.74
54453;BME280;40363;52.270;10.546;2023-05-24T02:29:39;77377.31;;;-147.06;91.05
54453;BME280;40363;52.270;10.546;2023-05-24T02:32:07;77381.44;;;-147.06;90.89
54453;BME280;40363;52.270;10.546;2023-05-24T02:34:35;77387.59;;;-147.06;91.58
54453;BME280;40363;52.270;10.546;2023-05-24T02:37:01;77379.38;;;-147.06;91.34
54453;BME280;40363;52.270;10.546;2023-05-24T02:39:28;77371.16;;;-147.06;91.48
54453;BME280;40363;52.270;10.546;2023-05-24T02:41:55;77377.31;;;-147.06;91.50
54453;BME280;40363;52.270;10.546;2023-05-24T02:44:21;77393.75;;;-147.06;92.32
54453;BME280;40363;52.270;10.546;2023-05-24T02:46:48;77387.59;;;-147.06;92.31
54453;BME280;40363;52.270;10.546;2023-05-24T02:49:15;77397.88;;;-147.06;92.46
54453;BME280;40363;52.270;10.546;2023-05-24T02:51:42;77401.97;;;-147.06;93.28
54453;BME280;40363;52.270;10.546;2023-05-24T02:54:09;77393.75;;;-147.06;93.08
54453;BME280;40363;52.270;10.546;2023-05-24T02:56:35;77399.94;;;-147.06;93.02
54453;BME280;40363;52.270;10.546;2023-05-24T02:59:03;77422.53;;;-147.06;93.59
54453;BME280;40363;52.270;10.546;2023-05-24T03:01:30;77414.31;;;-147.06;93.69
54453;BME280;40363;52.270;10.546;2023-05-24T03:03:58;77406.09;;;-147.06;93.80
54453;BME280;40363;52.270;10.546;2023-05-24T03:06:24;77401.97;;;-147.06;93.58
54453;BME280;40363;52.270;10.546;2023-05-24T03:08:52;77401.97;;;-147.06;93.56
54453;BME280;40363;52.270;10.546;2023-05-24T03:11:19;77393.75;;;-147.06;93.48
54453;BME280;40363;52.270;10.546;2023-05-24T03:13:46;77391.72;;;-147.06;93.28
54453;BME280;40363;52.270;10.546;2023-05-24T03:16:13;77404.03;;;-147.06;93.71
54453;BME280;40363;52.270;10.546;2023-05-24T03:18:41;77404.03;;;-147.06;93.84
54453;BME280;40363;52.270;10.546;2023-05-24T03:21:08;77397.88;;;-147.06;94.17
54453;BME280;40363;52.270;10.546;2023-05-24T03:23:34;77389.66;;;-147.06;93.46
54453;BME280;40363;52.270;10.546;2023-05-24T03:26:02;77397.88;;;-147.06;93.65
54453;BME280;40363;52.270;10.546;2023-05-24T03:28:29;77391.72;;;-147.06;94.48
54453;BME280;40363;52.270;10.546;2023-05-24T03:30:55;77389.66;;;-147.06;94.17
54453;BME280;40363;52.270;10.546;2023-05-24T03:33:22;77379.38;;;-147.06;94.14
54453;BME280;40363;52.270;10.546;2023-05-24T03:35:48;77375.25;;;-147.06;93.97
54453;BME280;40363;52.270;10.546;2023-05-24T03:38:15;77367.03;;;-147.06;93.88
54453;BME280;40363;52.270;10.546;2023-05-24T03:40:42;77375.25;;;-147.06;93.95
54453;BME280;40363;52.270;10.546;2023-05-24T03:43:09;77367.03;;;-147.06;93.85
54453;BME280;40363;52.270;10.546;2023-05-24T03:45:36;77373.19;;;-147.06;93.69
54453;BME280;40363;52.270;10.546;2023-05-24T03:48:03;77381.44;;;-147.06;93.96
54453;BME280;40363;52.270;10.546;2023-05-24T03:50:29;77375.25;;;-147.06;93.83
54453;BME280;40363;52.270;10.546;2023-05-24T03:52:56;77375.25;;;-147.06;93.97
54453;BME280;40363;52.270;10.546;2023-05-24T03:55:22;77373.19;;;-147.06;93.76
54453;BME280;40363;52.270;10.546;2023-05-24T03:57:49;77360.88;;;-147.06;93.26
54453;BME280;40363;52.270;10.546;2023-05-24T04:00:17;77356.75;;;-147.06;92.96
54453;BME280;40363;52.270;10.546;2023-05-24T04:02:44;77344.41;;;-147.06;92.96
54453;BME280;40363;52.270;10.546;2023-05-24T04:05:12;77340.31;;;-147.06;92.46
54453;BME280;40363;52.270;10.546;2023-05-24T04:07:39;77354.69;;;-147.06;92.76
54453;BME280;40363;52.270;10.546;2023-05-24T04:10:07;77362.91;;;-147.06;93.23
54453;BME280;40363;52.270;10.546;2023-05-24T04:12:33;77362.91;;;-147.06;93.20
54453;BME280;40363;52.270;10.546;2023-05-24T04:15:00;77340.31;;;-147.06;92.63
54453;BME280;40363;52.270;10.546;2023-05-24T04:17:29;77334.13;;;-147.06;92.49
54453;BME280;40363;52.270;10.546;2023-05-24T04:19:58;77348.53;;;-147.06;92.73
54453;BME280;40363;52.270;10.546;2023-05-24T04:22:25;77336.19;;;-147.06;93.06
54453;BME280;40363;52.270;10.546;2023-05-24T04:24:52;77344.41;;;-147.06;92.99
54453;BME280;40363;52.270;10.546;2023-05-24T04:27:18;77336.19;;;-147.06;92.83
54453;BME280;40363;52.270;10.546;2023-05-24T04:29:45;77346.47;;;-147.06;92.89
54453;BME280;40363;52.270;10.546;2023-05-24T04:32:14;77342.38;;;-147.06;92.79
54453;BME280;40363;52.270;10.546;2023-05-24T04:34:43;77325.91;;;-147.06;92.41
54453;BME280;40363;52.270;10.546;2023-05-24T04:37:10;77334.13;;;-147.06;92.61
54453;BME280;40363;52.270;10.546;2023-05-24T04:39:38;77330.03;;;-147.06;92.86
54453;BME280;40363;52.270;10.546;2023-05-24T04:42:05;77309.47;;;-147.06;91.83
54453;BME280;40363;52.270;10.546;2023-05-24T04:44:32;77303.31;;;-147.06;91.45
54453;BME280;40363;52.270;10.546;2023-05-24T04:46:59;77295.06;;;-147.06;91.04
54453;BME280;40363;52.270;10.546;2023-05-24T04:49:27;77293.03;;;-147.06;91.17
54453;BME280;40363;52.270;10.546;2023-05-24T04:51:55;77290.97;;;-147.06;91.09
54453;BME280;40363;52.270;10.546;2023-05-24T04:54:21;77321.81;;;-147.06;91.55
54453;BME280;40363;52.270;10.546;2023-05-24T04:56:48;77307.41;;;-147.06;91.70
54453;BME280;40363;52.270;10.546;2023-05-24T04:59:15;77295.06;;;-147.06;91.35
54453;BME280;40363;52.270;10.546;2023-05-24T05:01:41;77299.19;;;-147.06;90.95
54453;BME280;40363;52.270;10.546;2023-05-24T05:04:08;77288.91;;;-147.06;91.57
54453;BME280;40363;52.270;10.546;2023-05-24T05:06:34;77293.03;;;-147.06;92.03
54453;BME280;40363;52.270;10.546;2023-05-24T05:09:05;77282.75;;;-147.06;91.46
54453;BME280;40363;52.270;10.546;2023-05-24T05:11:33;77262.19;;;-147.06;90.99
54453;BME280;40363;52.270;10.546;2023-05-24T05:14:00;77245.75;;;-147.06;90.46
54453;BME280;40363;52.270;10.546;2023-05-24T05:16:26;77264.25;;;-147.06;90.39
54453;BME280;40363;52.270;10.546;2023-05-24T05:18:53;77260.13;;;-147.06;90.55
54453;BME280;40363;52.270;10.546;2023-05-24T05:21:19;77266.31;;;-147.06;90.11
54453;BME280;40363;52.270;10.546;2023-05-24T05:23:46;77266.31;;;-147.06;90.24
54453;BME280;40363;52.270;10.546;2023-05-24T05:26:14;77233.41;;;-147.06;89.98
54453;BME280;40363;52.270;10.546;2023-05-24T05:28:41;77239.56;;;-147.06;89.51
54453;BME280;40363;52.270;10.546;2023-05-24T05:31:07;77245.75;;;-147.06;89.60
54453;BME280;40363;52.270;10.546;2023-05-24T05:33:34;77249.84;;;-147.06;90.15
54453;BME280;40363;52.270;10.546;2023-05-24T05:36:00;77243.69;;;-147.06;89.87
54453;BME280;40363;52.270;10.546;2023-05-24T05:38:27;77225.19;;;-147.06;89.29
54453;BME280;40363;52.270;10.546;2023-05-24T05:40:53;77200.50;;;-147.06;89.02
54453;BME280;40363;52.270;10.546;2023-05-24T05:43:21;77194.34;;;-147.06;88.35
54453;BME280;40363;52.270;10.546;2023-05-24T05:45:49;77161.47;;;-147.06;87.13
54453;BME280;40363;52.270;10.546;2023-05-24T05:48:15;77175.84;;;-147.06;86.81
54453;BME280;40363;52.270;10.546;2023-05-24T05:50:42;77157.34;;;-147.06;86.25
54453;BME280;40363;52.270;10.546;2023-05-24T05:53:08;77122.41;;;-147.06;85.70
54453;BME280;40363;52.270;10.546;2023-05-24T05:55:35;77130.63;;;-147.06;85.47
54453;BME280;40363;52.270;10.546;2023-05-24T05:58:02;77110.06;;;-147.06;84.78
54453;BME280;40363;52.270;10.546;2023-05-24T06:00:29;77122.41;;;-147.06;85.03
54453;BME280;40363;52.270;10.546;2023-05-24T06:02:56;77122.41;;;-147.06;85.51
54453;BME280;40363;52.270;10.546;2023-05-24T06:05:22;77114.19;;;-147.06;84.92
54453;BME280;40363;52.270;10.546;2023-05-24T06:07:49;77114.19;;;-147.06;84.86
54453;BME280;40363;52.270;10.546;2023-05-24T06:10:16;77101.84;;;-147.06;84.34
54453;BME280;40363;52.270;10.546;2023-05-24T06:12:42;77097.72;;;-147.06;84.29
54453;BME280;40363;52.270;10.546;2023-05-24T06:15:09;77085.41;;;-147.06;83.76
54453;BME280;40363;52.270;10.546;2023-05-24T06:17:37;77085.41;;;-147.06;84.22
54453;BME280;40363;52.270;10.546;2023-05-24T06:20:06;77056.63;;;-147.06;82.56
54453;BME280;40363;52.270;10.546;2023-05-24T06:22:35;77019.63;;;-147.06;81.71
54453;BME280;40363;52.270;10.546;2023-05-24T06:25:01;76978.50;;;-147.06;80.41
54453;BME280;40363;52.270;10.546;2023-05-24T06:27:30;76970.28;;;-147.06;79.72
54453;BME280;40363;52.270;10.546;2023-05-24T06:29:56;76974.38;;;-147.06;79.13
54453;BME280;40363;52.270;10.546;2023-05-24T06:32:23;76966.16;;;-147.06;78.54
54453;BME280;40363;52.270;10.546;2023-05-24T06:34:50;76978.50;;;-147.06;78.88
54453;BME280;40363;52.270;10.546;2023-05-24T06:37:17;76999.06;;;-147.06;79.69
54453;BME280;40363;52.270;10.546;2023-05-24T06:39:49;77007.28;;;-147.06;80.48
54453;BME280;40363;52.270;10.546;2023-05-24T06:42:15;77007.28;;;-147.06;80.62
54453;BME280;40363;52.270;10.546;2023-05-24T06:44:42;77005.22;;;-147.06;80.33
54453;BME280;40363;52.270;10.546;2023-05-24T06:47:08;76992.88;;;-147.06;80.10
54453;BME280;40363;52.270;10.546;2023-05-24T06:49:35;76978.50;;;-147.06;78.81
54453;BME280;40363;52.270;10.546;2023-05-24T06:52:04;76920.94;;;-147.06;76.64
54453;BME280;40363;52.270;10.546;2023-05-24T06:54:31;76873.66;;;-147.06;74.84
54453;BME280;40363;52.270;10.546;2023-05-24T06:56:58;76912.72;;;-147.06;75.68
54453;BME280;40363;52.270;10.546;2023-05-24T06:59:24;76920.94;;;-147.06;75.85
54453;BME280;40363;52.270;10.546;2023-05-24T07:01:51;76937.38;;;-147.06;76.41
54453;BME280;40363;52.270;10.546;2023-05-24T07:04:21;76966.16;;;-147.06;76.57
54453;BME280;40363;52.270;10.546;2023-05-24T07:06:48;76982.63;;;-147.06;77.07
54453;BME280;40363;52.270;10.546;2023-05-24T07:09:16;76976.44;;;-147.06;76.42
54453;BME280;40363;52.270;10.546;2023-05-24T07:11:43;76990.84;;;-147.06;76.85
54453;BME280;40363;52.270;10.546;2023-05-24T07:14:09;76953.84;;;-147.06;75.71
54453;BME280;40363;52.270;10.546;2023-05-24T07:16:36;76941.50;;;-147.06;75.55
54453;BME280;40363;52.270;10.546;2023-05-24T07:19:03;76935.34;;;-147.06;75.17
54453;BME280;40363;52.270;10.546;2023-05-24T07:21:29;76947.66;;;-147.06;75.38
54453;BME280;40363;52.270;10.546;2023-05-24T07:23:56;76943.56;;;-147.06;74.25
54453;BME280;40363;52.270;10.546;2023-05-24T07:26:24;76925.06;;;-147.06;73.43
54453;BME280;40363;52.270;10.546;2023-05-24T07:28:50;76912.72;;;-147.06;72.99
54453;BME280;40363;52.270;10.546;2023-05-24T07:31:17;76888.06;;;-147.06;72.63
54453;BME280;40363;52.270;10.546;2023-05-24T07:33:43;76888.06;;;-147.06;73.47
54453;BME280;40363;52.270;10.546;2023-05-24T07:36:10;76883.94;;;-147.06;72.34
54453;BME280;40363;52.270;10.546;2023-05-24T07:38:36;76892.16;;;-147.06;72.42
54453;BME280;40363;52.270;10.546;2023-05-24T07:41:05;76906.56;;;-147.06;72.68
54453;BME280;40363;52.270;10.546;2023-05-24T07:43:33;76902.44;;;-147.06;72.65
54453;BME280;40363;52.270;10.546;2023-05-24T07:46:01;76731.84;;;-147.06;69.72
54453;BME280;40363;52.270;10.546;2023-05-24T07:48:28;76555.06;;;-147.06;62.13
54453;BME280;40363;52.270;10.546;2023-05-24T07:50:54;76511.91;;;-147.06;59.98
54453;BME280;40363;52.270;10.546;2023-05-24T07:53:21;76532.47;;;-147.06;60.50
54453;BME280;40363;52.270;10.546;2023-05-24T07:55:48;76345.41;;;-147.06;56.08
54453;BME280;40363;52.270;10.546;2023-05-24T07:58:15;76263.22;;;-147.06;53.47
54453;BME280;40363;52.270;10.546;2023-05-24T08:00:42;76205.66;;;-147.06;52.23
54453;BME280;40363;52.270;10.546;2023-05-24T08:03:09;76181.00;;;-147.06;51.04
54453;BME280;40363;52.270;10.546;2023-05-24T08:05:38;76152.22;;;-147.06;50.42
54453;BME280;40363;52.270;10.546;2023-05-24T08:08:05;76127.56;;;-147.06;50.07
54453;BME280;40363;52.270;10.546;2023-05-24T08:10:31;76228.28;;;-147.06;51.35
54453;BME280;40363;52.270;10.546;2023-05-24T08:12:58;76273.47;;;-147.06;51.61
54453;BME280;40363;52.270;10.546;2023-05-24T08:15:25;76409.13;;;-147.06;53.54
54453;BME280;40363;52.270;10.546;2023-05-24T08:17:53;76300.19;;;-147.06;52.83
54453;BME280;40363;52.270;10.546;2023-05-24T08:20:20;76450.25;;;-147.06;55.26
54453;BME280;40363;52.270;10.546;2023-05-24T08:22:46;76559.19;;;-147.06;57.38
54453;BME280;40363;52.270;10.546;2023-05-24T08:25:13;76592.06;;;-147.06;59.46
54453;BME280;40363;52.270;10.546;2023-05-24T08:27:40;76624.94;;;-147.06;60.66
54453;BME280;40363;52.270;10.546;2023-05-24T08:30:07;76670.16;;;-147.06;61.26
54453;BME280;40363;52.270;10.546;2023-05-24T08:32:35;76705.13;;;-147.06;62.58
54453;BME280;40363;52.270;10.546;2023-05-24T08:35:04;76727.72;;;-147.06;63.70
54453;BME280;40363;52.270;10.546;2023-05-24T08:37:31;76746.22;;;-147.06;64.08
54453;BME280;40363;52.270;10.546;2023-05-24T08:39:58;76758.56;;;-147.06;64.44
54453;BME280;40363;52.270;10.546;2023-05-24T08:42:24;76713.34;;;-147.06;63.98
54453;BME280;40363;52.270;10.546;2023-05-24T08:44:58;76694.84;;;-147.06;63.33
54453;BME280;40363;52.270;10.546;2023-05-24T08:47:29;76526.28;;;-147.06;59.25
54453;BME280;40363;52.270;10.546;2023-05-24T08:49:56;76567.41;;;-147.06;59.88
54453;BME280;40363;52.270;10.546;2023-05-24T08:52:25;76624.94;;;-147.06;60.93
54453;BME280;40363;52.270;10.546;2023-05-24T08:54:53;76680.44;;;-147.06;62.05
54453;BME280;40363;52.270;10.546;2023-05-24T08:57:21;76715.38;;;-147.06;62.75
54453;BME280;40363;52.270;10.546;2023-05-24T08:59:48;76727.72;;;-147.06;63.02
54453;BME280;40363;52.270;10.546;2023-05-24T09:02:15;76731.84;;;-147.06;63.38
54453;BME280;40363;52.270;10.546;2023-05-24T09:04:43;76748.28;;;-147.06;64.18
54453;BME280;40363;52.270;10.546;2023-05-24T09:07:12;76744.16;;;-147.06;64.76
54453;BME280;40363;52.270;10.546;2023-05-24T09:09:44;76740.06;;;-147.06;64.19
54453;BME280;40363;52.270;10.546;2023-05-24T09:12:14;76711.28;;;-147.06;64.03
54453;BME280;40363;52.270;10.546;2023-05-24T09:14:44;76692.78;;;-147.06;62.67
54453;BME280;40363;52.270;10.546;2023-05-24T09:17:12;76694.84;;;-147.06;63.39
54453;BME280;40363;52.270;10.546;2023-05-24T09:19:43;76725.66;;;-147.06;63.97
54453;BME280;40363;52.270;10.546;2023-05-24T09:22:12;76772.94;;;-147.06;65.33
54453;BME280;40363;52.270;10.546;2023-05-24T09:24:45;76801.72;;;-147.06;65.79
54453;BME280;40363;52.270;10.546;2023-05-24T09:27:13;76807.88;;;-147.06;66.54
54453;BME280;40363;52.270;10.546;2023-05-24T09:29:40;76849.00;;;-147.06;67.23
54453;BME280;40363;52.270;10.546;2023-05-24T09:32:08;76877.78;;;-147.06;68.90
54453;BME280;40363;52.270;10.546;2023-05-24T09:34:37;76886.00;;;-147.06;70.07
54453;BME280;40363;52.270;10.546;2023-05-24T09:37:04;76914.78;;;-147.06;71.70
54453;BME280;40363;52.270;10.546;2023-05-24T09:39:32;76927.13;;;-147.06;72.86
54453;BME280;40363;52.270;10.546;2023-05-24T09:42:02;76920.94;;;-147.06;73.82
54453;BME280;40363;52.270;10.546;2023-05-24T09:44:28;76910.66;;;-147.06;74.08
54453;BME280;40363;52.270;10.546;2023-05-24T09:47:00;76929.16;;;-147.06;75.60
54453;BME280;40363;52.270;10.546;2023-05-24T09:49:29;76945.63;;;-147.06;76.19
54453;BME280;40363;52.270;10.546;2023-05-24T09:51:55;76941.50;;;-147.06;76.12
54453;BME280;40363;52.270;10.546;2023-05-24T09:54:22;76966.16;;;-147.06;76.68
54453;BME280;40363;52.270;10.546;2023-05-24T09:56:50;76937.38;;;-147.06;76.66
54453;BME280;40363;52.270;10.546;2023-05-24T09:59:18;76916.84;;;-147.06;76.55
54453;BME280;40363;52.270;10.546;2023-05-24T10:01:45;76916.84;;;-147.06;75.98
54453;BME280;40363;52.270;10.546;2023-05-24T10:04:11;76892.16;;;-147.06;75.12
54453;BME280;40363;52.270;10.546;2023-05-24T10:06:40;76890.13;;;-147.06;75.24
54453;BME280;40363;52.270;10.546;2023-05-24T10:09:08;76846.94;;;-147.06;74.42
54453;BME280;40363;52.270;10.546;2023-05-24T10:11:35;76801.72;;;-147.06;72.53
54453;BME280;40363;52.270;10.546;2023-05-24T10:14:03;76764.72;;;-147.06;71.12
54453;BME280;40363;52.270;10.546;2023-05-24T10:16:32;76709.22;;;-147.06;69.13
54453;BME280;40363;52.270;10.546;2023-05-24T10:18:59;76645.50;;;-147.06;66.81
54453;BME280;40363;52.270;10.546;2023-05-24T10:21:28;76649.63;;;-147.06;66.79
54453;BME280;40363;52.270;10.546;2023-05-24T10:23:58;76631.13;;;-147.06;66.01
54453;BME280;40363;52.270;10.546;2023-05-24T10:26:28;76653.72;;;-147.06;65.33
54453;BME280;40363;52.270;10.546;2023-05-24T10:29:00;76594.13;;;-147.06;63.80
54453;BME280;40363;52.270;10.546;2023-05-24T10:31:32;76614.69;;;-147.06;64.81
54453;BME280;40363;52.270;10.546;2023-05-24T10:34:02;76612.63;;;-147.06;64.53
54453;BME280;40363;52.270;10.546;2023-05-24T10:36:30;76635.22;;;-147.06;65.63
54453;BME280;40363;52.270;10.546;2023-05-24T10:38:58;76717.44;;;-147.06;67.01
54453;BME280;40363;52.270;10.546;2023-05-24T10:41:25;76742.09;;;-147.06;67.24
54453;BME280;40363;52.270;10.546;2023-05-24T10:43:52;76738.00;;;-147.06;67.68
54453;BME280;40363;52.270;10.546;2023-05-24T10:46:20;76715.38;;;-147.06;67.73
54453;BME280;40363;52.270;10.546;2023-05-24T10:48:59;76733.88;;;-147.06;69.14
54453;BME280;40363;52.270;10.546;2023-05-24T10:51:32;76740.06;;;-147.06;69.54
54453;BME280;40363;52.270;10.546;2023-05-24T10:54:13;76727.72;;;-147.06;69.25
54453;BME280;40363;52.270;10.546;2023-05-24T10:56:40;76719.50;;;-147.06;67.77
54453;BME280;40363;52.270;10.546;2023-05-24T10:59:07;76696.88;;;-147.06;67.03
54453;BME280;40363;52.270;10.546;2023-05-24T11:01:35;76686.63;;;-147.06;67.13
54453;BME280;40363;52.270;10.546;2023-05-24T11:04:10;76680.44;;;-147.06;67.13
54453;BME280;40363;52.270;10.546;2023-05-24T11:06:47;76674.28;;;-147.06;66.46
54453;BME280;40363;52.270;10.546;2023-05-24T11:09:15;76698.94;;;-147.06;67.34
54453;BME280;40363;52.270;10.546;2023-05-24T11:11:45;76696.88;;;-147.06;67.34
54453;BME280;40363;52.270;10.546;2023-05-24T11:14:13;76721.56;;;-147.06;67.94
54453;BME280;40363;52.270;10.546;2023-05-24T11:16:44;76703.06;;;-147.06;67.63
54453;BME280;40363;52.270;10.546;2023-05-24T11:19:14;76686.63;;;-147.06;67.83
54453;BME280;40363;52.270;10.546;2023-05-24T11:21:42;76715.38;;;-147.06;68.17
54453;BME280;40363;52.270;10.546;2023-05-24T11:24:09;76688.66;;;-147.06;67.96
54453;BME280;40363;52.270;10.546;2023-05-24T11:26:36;76682.50;;;-147.06;67.52
54453;BME280;40363;52.270;10.546;2023-05-24T11:29:03;76643.44;;;-147.06;67.06
54453;BME280;40363;52.270;10.546;2023-05-24T11:31:30;76647.56;;;-147.06;66.54
54453;BME280;40363;52.270;10.546;2023-05-24T11:33:59;76657.84;;;-147.06;66.82
54453;BME280;40363;52.270;10.546;2023-05-24T11:36:26;76670.16;;;-147.06;67.76
54453;BME280;40363;52.270;10.546;2023-05-24T11:38:54;76690.72;;;-147.06;68.09
54453;BME280;40363;52.270;10.546;2023-05-24T11:41:20;76727.72;;;-147.06;69.17
54453;BME280;40363;52.270;10.546;2023-05-24T11:43:47;76725.66;;;-147.06;69.59
54453;BME280;40363;52.270;10.546;2023-05-24T11:46:14;76740.06;;;-147.06;70.04
54453;BME280;40363;52.270;10.546;2023-05-24T11:48:41;76748.28;;;-147.06;70.76
54453;BME280;40363;52.270;10.546;2023-05-24T11:51:08;76744.16;;;-147.06;70.99
54453;BME280;40363;52.270;10.546;2023-05-24T11:53:37;76744.16;;;-147.06;70.77
54453;BME280;40363;52.270;10.546;2023-05-24T11:56:04;76727.72;;;-147.06;70.53
54453;BME280;40363;52.270;10.546;2023-05-24T11:58:40;76705.13;;;-147.06;70.14
54453;BME280;40363;52.270;10.546;2023-05-24T12:01:22;76703.06;;;-147.06;69.68
54453;BME280;40363;52.270;10.546;2023-05-24T12:03:50;76698.94;;;-147.06;69.74
54453;BME280;40363;52.270;10.546;2023-05-24T12:06:17;76694.84;;;-147.06;69.72
54453;BME280;40363;52.270;10.546;2023-05-24T12:08:45;76701.00;;;-147.06;68.87
54453;BME280;40363;52.270;10.546;2023-05-24T12:11:12;76692.78;;;-147.06;69.39
54453;BME280;40363;52.270;10.546;2023-05-24T12:13:40;76686.63;;;-147.06;68.66
54453;BME280;40363;52.270;10.546;2023-05-24T12:16:10;76698.94;;;-147.06;69.15
54453;BME280;40363;52.270;10.546;2023-05-24T12:18:38;76655.78;;;-147.06;68.31
54453;BME280;40363;52.270;10.546;2023-05-24T12:21:07;76672.22;;;-147.06;68.69
54453;BME280;40363;52.270;10.546;2023-05-24T12:23:35;76674.28;;;-147.06;68.71
54453;BME280;40363;52.270;10.546;2023-05-24T12:26:05;76666.06;;;-147.06;69.23
54453;BME280;40363;52.270;10.546;2023-05-24T12:28:32;76657.84;;;-147.06;68.24
54453;BME280;40363;52.270;10.546;2023-05-24T12:31:01;76680.44;;;-147.06;69.25
54453;BME280;40363;52.270;10.546;2023-05-24T12:33:28;76696.88;;;-147.06;70.34
54453;BME280;40363;52.270;10.546;2023-05-24T12:35:56;76682.50;;;-147.06;69.26